sensor_id;sensor_type;location;lat;lon;timestamp;temperature;humidity
49385;DHT22;36795;45.028;38.968;2023-11-18T00:00:46;9.50;77.40
49385;DHT22;36795;45.028;38.968;2023-11-18T00:03:32;9.50;77.40
49385;DHT22;36795;45.028;38.968;2023-11-18T00:06:18;9.50;77.50
49385;DHT22;36795;45.028;38.968;2023-11-18T00:09:05;9.50;77.40
49385;DHT22;36795;45.028;38.968;2023-11-18T00:11:51;9.50;77.50
49385;DHT22;36795;45.028;38.968;2023-11-18T00:14:37;9.40;77.50
49385;DHT22;36795;45.028;38.968;2023-11-18T00:17:23;9.50;77.60
49385;DHT22;36795;45.028;38.968;2023-11-18T00:20:10;9.40;77.50
49385;DHT22;36795;45.028;38.968;2023-11-18T00:22:57;9.40;77.50
49385;DHT22;36795;45.028;38.968;2023-11-18T00:25:44;9.40;77.50
49385;DHT22;36795;45.028;38.968;2023-11-18T00:28:31;9.50;77.40
49385;DHT22;36795;45.028;38.968;2023-11-18T00:31:18;9.40;77.50
49385;DHT22;36795;45.028;38.968;2023-11-18T00:34:04;9.40;77.40
49385;DHT22;36795;45.028;38.968;2023-11-18T00:36:51;9.30;77.30
49385;DHT22;36795;45.028;38.968;2023-11-18T00:39:37;9.30;77.20
49385;DHT22;36795;45.028;38.968;2023-11-18T00:42:24;9.30;77.20
49385;DHT22;36795;45.028;38.968;2023-11-18T00:45:09;9.20;77.10
49385;DHT22;36795;45.028;38.968;2023-11-18T00:47:58;9.30;77.20
49385;DHT22;36795;45.028;38.968;2023-11-18T00:50:44;9.30;77.10
49385;DHT22;36795;45.028;38.968;2023-11-18T00:53:30;9.30;76.80
49385;DHT22;36795;45.028;38.968;2023-11-18T00:56:16;9.40;76.80
49385;DHT22;36795;45.028;38.968;2023-11-18T00:59:03;9.40;76.80
49385;DHT22;36795;45.028;38.968;2023-11-18T01:01:52;9.30;76.60
49385;DHT22;36795;45.028;38.968;2023-11-18T01:04:38;9.30;76.60
49385;DHT22;36795;45.028;38.968;2023-11-18T01:07:24;9.20;76.70
49385;DHT22;36795;45.028;38.968;2023-11-18T01:10:11;9.20;76.80
49385;DHT22;36795;45.028;38.968;2023-11-18T01:12:57;9.20;77.00
49385;DHT22;36795;45.028;38.968;2023-11-18T01:15:44;9.20;77.10
49385;DHT22;36795;45.028;38.968;2023-11-18T01:18:29;9.20;76.90
49385;DHT22;36795;45.028;38.968;2023-11-18T01:21:16;9.20;77.00
49385;DHT22;36795;45.028;38.968;2023-11-18T01:24:02;9.20;77.00
49385;DHT22;36795;45.028;38.968;2023-11-18T01:26:49;9.10;77.00
49385;DHT22;36795;45.028;38.968;2023-11-18T01:29:38;9.10;77.30
49385;DHT22;36795;45.028;38.968;2023-11-18T01:32:24;9.10;77.70
49385;DHT22;36795;45.028;38.968;2023-11-18T01:35:11;9.10;78.00
49385;DHT22;36795;45.028;38.968;2023-11-18T01:37:58;9.10;78.30
49385;DHT22;36795;45.028;38.968;2023-11-18T01:40:44;9.00;78.40
49385;DHT22;36795;45.028;38.968;2023-11-18T01:43:30;8.90;78.90
49385;DHT22;36795;45.028;38.968;2023-11-18T01:46:18;8.90;79.30
49385;DHT22;36795;45.028;38.968;2023-11-18T01:49:04;8.90;79.50
49385;DHT22;36795;45.028;38.968;2023-11-18T01:51:51;8.90;80.10
49385;DHT22;36795;45.028;38.968;2023-11-18T01:54:38;8.90;80.10
49385;DHT22;36795;45.028;38.968;2023-11-18T01:57:24;8.90;80.00
49385;DHT22;36795;45.028;38.968;2023-11-18T02:00:13;8.90;80.10
49385;DHT22;36795;45.028;38.968;2023-11-18T02:03:03;8.80;80.30
49385;DHT22;36795;45.028;38.968;2023-11-18T02:05:51;8.80;80.50
49385;DHT22;36795;45.028;38.968;2023-11-18T02:08:37;8.80;80.80
49385;DHT22;36795;45.028;38.968;2023-11-18T02:11:43;8.70;80.80
49385;DHT22;36795;45.028;38.968;2023-11-18T02:14:32;8.70;80.80
49385;DHT22;36795;45.028;38.968;2023-11-18T02:17:21;8.70;80.90
49385;DHT22;36795;45.028;38.968;2023-11-18T02:20:10;8.80;80.90
49385;DHT22;36795;45.028;38.968;2023-11-18T02:23:02;8.80;80.80
49385;DHT22;36795;45.028;38.968;2023-11-18T02:25:48;8.70;80.80
49385;DHT22;36795;45.028;38.968;2023-11-18T02:28:34;8.70;80.80
49385;DHT22;36795;45.028;38.968;2023-11-18T02:31:33;8.70;80.80
49385;DHT22;36795;45.028;38.968;2023-11-18T02:34:24;8.70;80.90
49385;DHT22;36795;45.028;38.968;2023-11-18T02:37:13;8.70;80.70
49385;DHT22;36795;45.028;38.968;2023-11-18T02:40:04;8.70;80.60
49385;DHT22;36795;45.028;38.968;2023-11-18T02:42:55;8.70;80.60
49385;DHT22;36795;45.028;38.968;2023-11-18T02:45:44;8.70;80.50
49385;DHT22;36795;45.028;38.968;2023-11-18T02:48:31;8.70;80.30
49385;DHT22;36795;45.028;38.968;2023-11-18T02:51:21;8.70;80.10
49385;DHT22;36795;45.028;38.968;2023-11-18T02:54:08;8.70;80.10
49385;DHT22;36795;45.028;38.968;2023-11-18T02:56:57;8.80;79.90
49385;DHT22;36795;45.028;38.968;2023-11-18T02:59:44;8.80;79.80
49385;DHT22;36795;45.028;38.968;2023-11-18T03:02:32;8.80;79.80
49385;DHT22;36795;45.028;38.968;2023-11-18T03:05:18;8.90;79.80
49385;DHT22;36795;45.028;38.968;2023-11-18T03:08:04;8.90;79.50
49385;DHT22;36795;45.028;38.968;2023-11-18T03:10:55;9.00;79.50
49385;DHT22;36795;45.028;38.968;2023-11-18T03:13:40;9.00;79.20
49385;DHT22;36795;45.028;38.968;2023-11-18T03:16:27;9.00;78.90
49385;DHT22;36795;45.028;38.968;2023-11-18T03:19:13;8.90;78.80
49385;DHT22;36795;45.028;38.968;2023-11-18T03:22:00;8.90;78.90
49385;DHT22;36795;45.028;38.968;2023-11-18T03:24:47;8.90;78.80
49385;DHT22;36795;45.028;38.968;2023-11-18T03:27:33;8.90;78.70
49385;DHT22;36795;45.028;38.968;2023-11-18T03:30:19;8.90;78.50
49385;DHT22;36795;45.028;38.968;2023-11-18T03:33:06;8.90;78.40
49385;DHT22;36795;45.028;38.968;2023-11-18T03:35:56;9.00;78.30
49385;DHT22;36795;45.028;38.968;2023-11-18T03:38:42;9.00;78.00
49385;DHT22;36795;45.028;38.968;2023-11-18T03:41:28;9.00;77.90
49385;DHT22;36795;45.028;38.968;2023-11-18T03:44:15;9.00;77.90
49385;DHT22;36795;45.028;38.968;2023-11-18T03:47:02;9.00;78.00
49385;DHT22;36795;45.028;38.968;2023-11-18T03:49:50;9.00;78.00
49385;DHT22;36795;45.028;38.968;2023-11-18T03:52:39;9.00;78.00
49385;DHT22;36795;45.028;38.968;2023-11-18T03:55:25;9.00;78.10
49385;DHT22;36795;45.028;38.968;2023-11-18T03:58:11;9.00;78.20
49385;DHT22;36795;45.028;38.968;2023-11-18T04:00:57;9.00;78.10
49385;DHT22;36795;45.028;38.968;2023-11-18T04:03:44;9.10;78.10
49385;DHT22;36795;45.028;38.968;2023-11-18T04:06:29;9.10;78.00
49385;DHT22;36795;45.028;38.968;2023-11-18T04:09:16;9.10;78.10
49385;DHT22;36795;45.028;38.968;2023-11-18T04:12:02;9.00;78.10
49385;DHT22;36795;45.028;38.968;2023-11-18T04:14:49;9.10;78.20
49385;DHT22;36795;45.028;38.968;2023-11-18T04:17:35;9.10;78.20
49385;DHT22;36795;45.028;38.968;2023-11-18T04:20:21;9.00;78.10
49385;DHT22;36795;45.028;38.968;2023-11-18T04:23:07;9.00;78.20
49385;DHT22;36795;45.028;38.968;2023-11-18T04:25:54;9.00;78.20
49385;DHT22;36795;45.028;38.968;2023-11-18T04:28:40;9.10;78.30
49385;DHT22;36795;45.028;38.968;2023-11-18T04:31:26;9.10;78.10
49385;DHT22;36795;45.028;38.968;2023-11-18T04:34:11;9.00;78.00
49385;DHT22;36795;45.028;38.968;2023-11-18T04:36:59;9.10;78.10
49385;DHT22;36795;45.028;38.968;2023-11-18T04:39:45;9.10;77.90
49385;DHT22;36795;45.028;38.968;2023-11-18T04:42:32;9.10;77.90
49385;DHT22;36795;45.028;38.968;2023-11-18T04:45:17;9.10;77.90
49385;DHT22;36795;45.028;38.968;2023-11-18T04:48:04;9.10;77.90
49385;DHT22;36795;45.028;38.968;2023-11-18T04:50:50;9.10;77.80
49385;DHT22;36795;45.028;38.968;2023-11-18T04:53:37;9.10;77.80
49385;DHT22;36795;45.028;38.968;2023-11-18T04:56:24;9.10;77.80
49385;DHT22;36795;45.028;38.968;2023-11-18T04:59:10;9.10;77.70
49385;DHT22;36795;45.028;38.968;2023-11-18T05:01:56;9.10;77.80
49385;DHT22;36795;45.028;38.968;2023-11-18T05:04:43;9.10;77.70
49385;DHT22;36795;45.028;38.968;2023-11-18T05:07:28;9.20;77.70
49385;DHT22;36795;45.028;38.968;2023-11-18T05:10:15;9.20;77.60
49385;DHT22;36795;45.028;38.968;2023-11-18T05:13:01;9.20;77.50
49385;DHT22;36795;45.028;38.968;2023-11-18T05:15:48;9.20;77.50
49385;DHT22;36795;45.028;38.968;2023-11-18T05:18:35;9.20;77.60
49385;DHT22;36795;45.028;38.968;2023-11-18T05:21:22;9.20;77.70
49385;DHT22;36795;45.028;38.968;2023-11-18T05:24:08;9.20;77.70
49385;DHT22;36795;45.028;38.968;2023-11-18T05:26:55;9.20;77.80
49385;DHT22;36795;45.028;38.968;2023-11-18T05:29:41;9.20;77.80
49385;DHT22;36795;45.028;38.968;2023-11-18T05:32:39;9.20;77.70
49385;DHT22;36795;45.028;38.968;2023-11-18T05:35:25;9.20;77.50
49385;DHT22;36795;45.028;38.968;2023-11-18T05:38:15;9.20;77.30
49385;DHT22;36795;45.028;38.968;2023-11-18T05:41:04;9.30;77.20
49385;DHT22;36795;45.028;38.968;2023-11-18T05:44:02;9.30;77.20
49385;DHT22;36795;45.028;38.968;2023-11-18T05:46:48;9.50;77.20
49385;DHT22;36795;45.028;38.968;2023-11-18T05:49:37;9.50;76.90
49385;DHT22;36795;45.028;38.968;2023-11-18T05:52:23;9.50;77.00
49385;DHT22;36795;45.028;38.968;2023-11-18T05:55:10;9.60;77.20
49385;DHT22;36795;45.028;38.968;2023-11-18T05:57:56;9.60;77.20
49385;DHT22;36795;45.028;38.968;2023-11-18T06:00:42;9.60;77.00
49385;DHT22;36795;45.028;38.968;2023-11-18T06:03:29;9.70;77.00
49385;DHT22;36795;45.028;38.968;2023-11-18T06:06:15;9.70;77.10
49385;DHT22;36795;45.028;38.968;2023-11-18T06:09:02;9.80;77.00
49385;DHT22;36795;45.028;38.968;2023-11-18T06:11:54;9.80;76.90
49385;DHT22;36795;45.028;38.968;2023-11-18T06:14:41;9.80;76.90
49385;DHT22;36795;45.028;38.968;2023-11-18T06:17:27;9.80;76.90
49385;DHT22;36795;45.028;38.968;2023-11-18T06:20:13;9.90;76.80
49385;DHT22;36795;45.028;38.968;2023-11-18T06:23:00;10.00;76.70
49385;DHT22;36795;45.028;38.968;2023-11-18T06:25:46;10.10;76.40
49385;DHT22;36795;45.028;38.968;2023-11-18T06:28:31;10.20;76.00
49385;DHT22;36795;45.028;38.968;2023-11-18T06:31:20;10.40;75.80
49385;DHT22;36795;45.028;38.968;2023-11-18T06:34:06;10.60;75.20
49385;DHT22;36795;45.028;38.968;2023-11-18T06:36:53;10.80;74.80
49385;DHT22;36795;45.028;38.968;2023-11-18T06:39:42;11.90;73.60
49385;DHT22;36795;45.028;38.968;2023-11-18T06:42:31;13.10;69.20
49385;DHT22;36795;45.028;38.968;2023-11-18T06:45:17;14.00;65.60
49385;DHT22;36795;45.028;38.968;2023-11-18T06:48:04;13.70;64.90
49385;DHT22;36795;45.028;38.968;2023-11-18T06:50:51;13.80;65.00
49385;DHT22;36795;45.028;38.968;2023-11-18T06:53:37;14.20;63.30
49385;DHT22;36795;45.028;38.968;2023-11-18T06:56:23;14.20;62.30
49385;DHT22;36795;45.028;38.968;2023-11-18T06:59:11;14.30;62.20
49385;DHT22;36795;45.028;38.968;2023-11-18T07:02:00;14.60;60.80
49385;DHT22;36795;45.028;38.968;2023-11-18T07:04:46;14.90;60.30
49385;DHT22;36795;45.028;38.968;2023-11-18T07:07:32;14.90;59.30
49385;DHT22;36795;45.028;38.968;2023-11-18T07:10:18;14.70;59.40
49385;DHT22;36795;45.028;38.968;2023-11-18T07:13:06;14.90;58.90
49385;DHT22;36795;45.028;38.968;2023-11-18T07:15:54;14.80;58.20
49385;DHT22;36795;45.028;38.968;2023-11-18T07:18:41;14.60;59.20
49385;DHT22;36795;45.028;38.968;2023-11-18T07:21:29;14.50;59.50
49385;DHT22;36795;45.028;38.968;2023-11-18T07:24:15;14.80;58.30
49385;DHT22;36795;45.028;38.968;2023-11-18T07:27:01;15.70;57.10
49385;DHT22;36795;45.028;38.968;2023-11-18T07:29:47;15.80;56.10
49385;DHT22;36795;45.028;38.968;2023-11-18T07:32:33;15.80;55.80
49385;DHT22;36795;45.028;38.968;2023-11-18T07:35:19;15.80;55.70
49385;DHT22;36795;45.028;38.968;2023-11-18T07:38:05;15.80;55.40
49385;DHT22;36795;45.028;38.968;2023-11-18T07:40:53;15.40;56.20
49385;DHT22;36795;45.028;38.968;2023-11-18T07:43:44;14.80;57.90
49385;DHT22;36795;45.028;38.968;2023-11-18T07:46:30;15.00;58.40
49385;DHT22;36795;45.028;38.968;2023-11-18T07:49:16;15.30;58.30
49385;DHT22;36795;45.028;38.968;2023-11-18T07:52:03;15.20;58.70
49385;DHT22;36795;45.028;38.968;2023-11-18T07:54:49;15.50;57.70
49385;DHT22;36795;45.028;38.968;2023-11-18T07:57:36;15.60;57.90
49385;DHT22;36795;45.028;38.968;2023-11-18T08:00:23;15.70;58.40
49385;DHT22;36795;45.028;38.968;2023-11-18T08:03:10;16.20;57.90
49385;DHT22;36795;45.028;38.968;2023-11-18T08:05:59;17.20;56.50
49385;DHT22;36795;45.028;38.968;2023-11-18T08:08:47;18.00;53.90
49385;DHT22;36795;45.028;38.968;2023-11-18T08:11:33;19.30;51.20
49385;DHT22;36795;45.028;38.968;2023-11-18T08:14:19;20.50;48.60
49385;DHT22;36795;45.028;38.968;2023-11-18T08:17:05;22.10;46.60
49385;DHT22;36795;45.028;38.968;2023-11-18T08:19:52;22.90;43.90
49385;DHT22;36795;45.028;38.968;2023-11-18T08:22:37;22.40;44.50
49385;DHT22;36795;45.028;38.968;2023-11-18T08:25:24;22.40;44.30
49385;DHT22;36795;45.028;38.968;2023-11-18T08:28:11;22.50;43.40
49385;DHT22;36795;45.028;38.968;2023-11-18T08:30:57;22.60;42.70
49385;DHT22;36795;45.028;38.968;2023-11-18T08:33:43;23.60;41.40
49385;DHT22;36795;45.028;38.968;2023-11-18T08:36:31;24.40;39.40
49385;DHT22;36795;45.028;38.968;2023-11-18T08:39:19;25.70;38.40
49385;DHT22;36795;45.028;38.968;2023-11-18T08:42:06;26.80;36.40
49385;DHT22;36795;45.028;38.968;2023-11-18T08:44:52;26.80;35.60
49385;DHT22;36795;45.028;38.968;2023-11-18T08:47:48;26.50;34.70
49385;DHT22;36795;45.028;38.968;2023-11-18T08:50:35;24.50;37.30
49385;DHT22;36795;45.028;38.968;2023-11-18T08:53:21;22.60;40.00
49385;DHT22;36795;45.028;38.968;2023-11-18T08:56:11;20.70;42.70
49385;DHT22;36795;45.028;38.968;2023-11-18T08:59:00;19.80;44.60
49385;DHT22;36795;45.028;38.968;2023-11-18T09:01:46;20.10;44.90
49385;DHT22;36795;45.028;38.968;2023-11-18T09:04:34;20.70;44.20
49385;DHT22;36795;45.028;38.968;2023-11-18T09:07:21;20.70;43.40
49385;DHT22;36795;45.028;38.968;2023-11-18T09:10:08;19.50;45.10
49385;DHT22;36795;45.028;38.968;2023-11-18T09:12:54;19.90;45.10
49385;DHT22;36795;45.028;38.968;2023-11-18T09:15:41;20.20;44.00
49385;DHT22;36795;45.028;38.968;2023-11-18T09:18:29;19.90;44.80
49385;DHT22;36795;45.028;38.968;2023-11-18T09:21:16;19.70;45.70
49385;DHT22;36795;45.028;38.968;2023-11-18T09:24:05;19.40;46.00
49385;DHT22;36795;45.028;38.968;2023-11-18T09:26:53;18.60;47.10
49385;DHT22;36795;45.028;38.968;2023-11-18T09:29:40;17.50;48.90
49385;DHT22;36795;45.028;38.968;2023-11-18T09:32:26;16.80;50.80
49385;DHT22;36795;45.028;38.968;2023-11-18T09:35:12;16.40;52.20
49385;DHT22;36795;45.028;38.968;2023-11-18T09:37:58;16.20;52.90
49385;DHT22;36795;45.028;38.968;2023-11-18T09:40:47;16.10;53.50
49385;DHT22;36795;45.028;38.968;2023-11-18T09:43:35;15.90;53.90
49385;DHT22;36795;45.028;38.968;2023-11-18T09:46:36;15.90;54.30
49385;DHT22;36795;45.028;38.968;2023-11-18T09:49:27;15.80;54.90
49385;DHT22;36795;45.028;38.968;2023-11-18T09:52:19;15.80;55.00
49385;DHT22;36795;45.028;38.968;2023-11-18T09:55:15;15.90;55.10
49385;DHT22;36795;45.028;38.968;2023-11-18T09:58:15;16.00;55.00
49385;DHT22;36795;45.028;38.968;2023-11-18T10:01:03;15.90;54.90
49385;DHT22;36795;45.028;38.968;2023-11-18T10:03:50;15.90;55.20
49385;DHT22;36795;45.028;38.968;2023-11-18T10:06:37;16.00;55.30
49385;DHT22;36795;45.028;38.968;2023-11-18T10:09:27;16.10;55.00
49385;DHT22;36795;45.028;38.968;2023-11-18T10:12:38;16.20;54.90
49385;DHT22;36795;45.028;38.968;2023-11-18T10:15:25;16.10;54.70
49385;DHT22;36795;45.028;38.968;2023-11-18T10:18:12;16.00;55.20
49385;DHT22;36795;45.028;38.968;2023-11-18T10:21:07;15.80;55.50
49385;DHT22;36795;45.028;38.968;2023-11-18T10:24:00;15.70;56.00
49385;DHT22;36795;45.028;38.968;2023-11-18T10:26:57;15.60;56.60
49385;DHT22;36795;45.028;38.968;2023-11-18T10:29:43;15.60;56.70
49385;DHT22;36795;45.028;38.968;2023-11-18T10:32:30;15.70;56.70
49385;DHT22;36795;45.028;38.968;2023-11-18T10:35:21;15.80;57.00
49385;DHT22;36795;45.028;38.968;2023-11-18T10:38:07;15.70;56.80
49385;DHT22;36795;45.028;38.968;2023-11-18T10:40:55;15.60;57.10
49385;DHT22;36795;45.028;38.968;2023-11-18T10:43:41;15.50;57.00
49385;DHT22;36795;45.028;38.968;2023-11-18T10:46:27;15.40;57.30
49385;DHT22;36795;45.028;38.968;2023-11-18T10:49:15;15.40;57.60
49385;DHT22;36795;45.028;38.968;2023-11-18T10:52:02;15.60;57.60
49385;DHT22;36795;45.028;38.968;2023-11-18T10:54:53;15.80;57.40
49385;DHT22;36795;45.028;38.968;2023-11-18T10:57:41;15.90;57.10
49385;DHT22;36795;45.028;38.968;2023-11-18T11:00:27;16.00;57.10
49385;DHT22;36795;45.028;38.968;2023-11-18T11:03:19;16.10;56.80
49385;DHT22;36795;45.028;38.968;2023-11-18T11:06:26;16.10;56.40
49385;DHT22;36795;45.028;38.968;2023-11-18T11:09:15;16.10;56.50
49385;DHT22;36795;45.028;38.968;2023-11-18T11:12:10;16.00;56.60
49385;DHT22;36795;45.028;38.968;2023-11-18T11:15:07;15.90;56.90
49385;DHT22;36795;45.028;38.968;2023-11-18T11:18:05;15.80;57.60
49385;DHT22;36795;45.028;38.968;2023-11-18T11:21:55;15.60;57.60
49385;DHT22;36795;45.028;38.968;2023-11-18T11:24:27;15.50;58.20
49385;DHT22;36795;45.028;38.968;2023-11-18T11:27:36;15.40;58.50
49385;DHT22;36795;45.028;38.968;2023-11-18T11:30:29;15.30;58.80
49385;DHT22;36795;45.028;38.968;2023-11-18T11:33:32;15.30;59.10
49385;DHT22;36795;45.028;38.968;2023-11-18T11:36:33;15.30;59.20
49385;DHT22;36795;45.028;38.968;2023-11-18T11:39:21;15.20;59.20
49385;DHT22;36795;45.028;38.968;2023-11-18T11:42:17;15.10;59.10
49385;DHT22;36795;45.028;38.968;2023-11-18T11:45:06;15.00;59.60
49385;DHT22;36795;45.028;38.968;2023-11-18T11:48:07;15.00;59.90
49385;DHT22;36795;45.028;38.968;2023-11-18T11:51:25;14.90;60.10
49385;DHT22;36795;45.028;38.968;2023-11-18T11:54:27;15.00;60.10
49385;DHT22;36795;45.028;38.968;2023-11-18T11:57:15;15.00;60.30
49385;DHT22;36795;45.028;38.968;2023-11-18T12:00:03;14.90;60.40
49385;DHT22;36795;45.028;38.968;2023-11-18T12:03:01;14.90;60.60
49385;DHT22;36795;45.028;38.968;2023-11-18T12:05:54;14.80;60.80
49385;DHT22;36795;45.028;38.968;2023-11-18T12:08:42;14.70;61.20
49385;DHT22;36795;45.028;38.968;2023-11-18T12:11:35;14.60;61.60
49385;DHT22;36795;45.028;38.968;2023-11-18T12:14:25;14.50;61.90
49385;DHT22;36795;45.028;38.968;2023-11-18T12:17:11;14.40;62.50
49385;DHT22;36795;45.028;38.968;2023-11-18T12:20:39;14.30;62.80
49385;DHT22;36795;45.028;38.968;2023-11-18T12:23:30;14.20;63.10
49385;DHT22;36795;45.028;38.968;2023-11-18T12:26:38;14.10;63.60
49385;DHT22;36795;45.028;38.968;2023-11-18T12:29:33;14.00;63.90
49385;DHT22;36795;45.028;38.968;2023-11-18T12:32:58;14.00;64.40
49385;DHT22;36795;45.028;38.968;2023-11-18T12:39:08;13.90;65.00
49385;DHT22;36795;45.028;38.968;2023-11-18T12:42:06;13.80;65.30
49385;DHT22;36795;45.028;38.968;2023-11-18T12:45:20;13.80;65.90
49385;DHT22;36795;45.028;38.968;2023-11-18T12:48:14;13.70;66.70
49385;DHT22;36795;45.028;38.968;2023-11-18T12:51:01;13.60;67.30
49385;DHT22;36795;45.028;38.968;2023-11-18T12:53:50;13.50;67.80
49385;DHT22;36795;45.028;38.968;2023-11-18T12:56:39;13.40;68.60
49385;DHT22;36795;45.028;38.968;2023-11-18T12:59:25;13.30;69.10
49385;DHT22;36795;45.028;38.968;2023-11-18T13:02:11;13.20;69.70
49385;DHT22;36795;45.028;38.968;2023-11-18T13:05:06;13.00;70.30
49385;DHT22;36795;45.028;38.968;2023-11-18T13:07:56;13.00;70.90
49385;DHT22;36795;45.028;38.968;2023-11-18T13:10:44;12.90;71.10
49385;DHT22;36795;45.028;38.968;2023-11-18T13:13:33;12.90;71.40
49385;DHT22;36795;45.028;38.968;2023-11-18T13:16:20;12.80;71.70
49385;DHT22;36795;45.028;38.968;2023-11-18T13:19:07;12.70;72.00
49385;DHT22;36795;45.028;38.968;2023-11-18T13:21:59;12.70;72.30
49385;DHT22;36795;45.028;38.968;2023-11-18T13:24:46;12.60;72.50
49385;DHT22;36795;45.028;38.968;2023-11-18T13:27:32;12.50;72.70
49385;DHT22;36795;45.028;38.968;2023-11-18T13:30:19;12.40;73.10
49385;DHT22;36795;45.028;38.968;2023-11-18T13:33:06;12.30;73.30
49385;DHT22;36795;45.028;38.968;2023-11-18T13:35:53;12.30;73.40
49385;DHT22;36795;45.028;38.968;2023-11-18T13:38:40;12.30;73.70
49385;DHT22;36795;45.028;38.968;2023-11-18T13:41:31;12.20;73.70
49385;DHT22;36795;45.028;38.968;2023-11-18T13:44:36;12.20;73.90
49385;DHT22;36795;45.028;38.968;2023-11-18T13:47:27;12.10;74.10
49385;DHT22;36795;45.028;38.968;2023-11-18T13:50:13;12.10;74.30
49385;DHT22;36795;45.028;38.968;2023-11-18T13:53:03;12.10;74.50
49385;DHT22;36795;45.028;38.968;2023-11-18T13:55:51;12.00;74.50
49385;DHT22;36795;45.028;38.968;2023-11-18T13:58:37;11.90;74.70
49385;DHT22;36795;45.028;38.968;2023-11-18T14:01:26;11.90;74.90
49385;DHT22;36795;45.028;38.968;2023-11-18T14:04:13;11.80;74.90
49385;DHT22;36795;45.028;38.968;2023-11-18T14:07:00;11.80;75.10
49385;DHT22;36795;45.028;38.968;2023-11-18T14:09:51;11.70;75.30
49385;DHT22;36795;45.028;38.968;2023-11-18T14:13:04;11.60;75.50
49385;DHT22;36795;45.028;38.968;2023-11-18T14:15:58;11.50;75.70
49385;DHT22;36795;45.028;38.968;2023-11-18T14:18:44;11.50;75.80
49385;DHT22;36795;45.028;38.968;2023-11-18T14:21:32;11.50;75.80
49385;DHT22;36795;45.028;38.968;2023-11-18T14:24:18;11.40;75.90
49385;DHT22;36795;45.028;38.968;2023-11-18T14:27:04;11.30;76.00
49385;DHT22;36795;45.028;38.968;2023-11-18T14:29:50;11.40;76.00
49385;DHT22;36795;45.028;38.968;2023-11-18T14:32:36;11.40;76.00
49385;DHT22;36795;45.028;38.968;2023-11-18T14:35:23;11.40;75.90
49385;DHT22;36795;45.028;38.968;2023-11-18T14:38:09;11.20;75.90
49385;DHT22;36795;45.028;38.968;2023-11-18T14:40:55;11.20;76.00
49385;DHT22;36795;45.028;38.968;2023-11-18T14:43:42;11.10;76.10
49385;DHT22;36795;45.028;38.968;2023-11-18T14:46:28;11.10;76.20
49385;DHT22;36795;45.028;38.968;2023-11-18T14:49:14;11.10;76.50
49385;DHT22;36795;45.028;38.968;2023-11-18T14:52:00;11.00;76.50
49385;DHT22;36795;45.028;38.968;2023-11-18T14:54:47;11.00;76.70
49385;DHT22;36795;45.028;38.968;2023-11-18T14:57:33;11.00;76.80
49385;DHT22;36795;45.028;38.968;2023-11-18T15:00:20;11.00;76.70
49385;DHT22;36795;45.028;38.968;2023-11-18T15:03:07;11.00;76.80
49385;DHT22;36795;45.028;38.968;2023-11-18T15:05:53;10.90;77.50
49385;DHT22;36795;45.028;38.968;2023-11-18T15:08:40;10.80;77.00
49385;DHT22;36795;45.028;38.968;2023-11-18T15:11:26;10.80;77.10
49385;DHT22;36795;45.028;38.968;2023-11-18T15:14:12;10.80;77.10
49385;DHT22;36795;45.028;38.968;2023-11-18T15:17:00;10.80;77.30
49385;DHT22;36795;45.028;38.968;2023-11-18T15:19:45;10.80;77.20
49385;DHT22;36795;45.028;38.968;2023-11-18T15:22:32;10.70;77.40
49385;DHT22;36795;45.028;38.968;2023-11-18T15:25:18;10.70;78.10
49385;DHT22;36795;45.028;38.968;2023-11-18T15:28:05;10.70;77.70
49385;DHT22;36795;45.028;38.968;2023-11-18T15:30:55;10.60;77.60
49385;DHT22;36795;45.028;38.968;2023-11-18T15:33:42;10.60;77.80
49385;DHT22;36795;45.028;38.968;2023-11-18T15:36:30;10.60;77.80
49385;DHT22;36795;45.028;38.968;2023-11-18T15:39:18;10.60;77.80
49385;DHT22;36795;45.028;38.968;2023-11-18T15:42:04;10.60;77.80
49385;DHT22;36795;45.028;38.968;2023-11-18T15:44:51;10.60;77.80
49385;DHT22;36795;45.028;38.968;2023-11-18T15:47:40;10.50;78.00
49385;DHT22;36795;45.028;38.968;2023-11-18T15:50:28;10.40;78.10
49385;DHT22;36795;45.028;38.968;2023-11-18T15:53:14;10.40;78.30
49385;DHT22;36795;45.028;38.968;2023-11-18T15:56:00;10.50;78.30
49385;DHT22;36795;45.028;38.968;2023-11-18T15:58:46;10.50;78.10
49385;DHT22;36795;45.028;38.968;2023-11-18T16:01:32;10.50;77.80
49385;DHT22;36795;45.028;38.968;2023-11-18T16:04:18;10.60;77.70
49385;DHT22;36795;45.028;38.968;2023-11-18T16:07:05;10.60;77.70
49385;DHT22;36795;45.028;38.968;2023-11-18T16:09:52;10.50;77.50
49385;DHT22;36795;45.028;38.968;2023-11-18T16:12:38;10.50;77.80
49385;DHT22;36795;45.028;38.968;2023-11-18T16:15:26;10.50;77.70
49385;DHT22;36795;45.028;38.968;2023-11-18T16:18:13;10.50;77.80
49385;DHT22;36795;45.028;38.968;2023-11-18T16:20:59;10.40;77.80
49385;DHT22;36795;45.028;38.968;2023-11-18T16:23:47;10.40;77.90
49385;DHT22;36795;45.028;38.968;2023-11-18T16:26:34;10.40;77.90
49385;DHT22;36795;45.028;38.968;2023-11-18T16:29:19;10.40;77.90
49385;DHT22;36795;45.028;38.968;2023-11-18T16:32:07;10.40;78.00
49385;DHT22;36795;45.028;38.968;2023-11-18T16:34:54;10.40;77.90
49385;DHT22;36795;45.028;38.968;2023-11-18T16:37:42;10.40;77.90
49385;DHT22;36795;45.028;38.968;2023-11-18T16:40:27;10.40;77.80
49385;DHT22;36795;45.028;38.968;2023-11-18T16:43:13;10.40;78.20
49385;DHT22;36795;45.028;38.968;2023-11-18T16:45:59;10.40;77.70
49385;DHT22;36795;45.028;38.968;2023-11-18T16:48:45;10.40;77.60
49385;DHT22;36795;45.028;38.968;2023-11-18T16:51:31;10.50;77.80
49385;DHT22;36795;45.028;38.968;2023-11-18T16:54:17;10.50;77.60
49385;DHT22;36795;45.028;38.968;2023-11-18T16:57:04;10.40;77.50
49385;DHT22;36795;45.028;38.968;2023-11-18T16:59:51;10.40;77.60
49385;DHT22;36795;45.028;38.968;2023-11-18T17:02:38;10.40;77.80
49385;DHT22;36795;45.028;38.968;2023-11-18T17:05:24;10.40;77.60
49385;DHT22;36795;45.028;38.968;2023-11-18T17:08:10;10.40;77.80
49385;DHT22;36795;45.028;38.968;2023-11-18T17:10:56;10.40;77.70
49385;DHT22;36795;45.028;38.968;2023-11-18T17:13:43;10.40;77.70
49385;DHT22;36795;45.028;38.968;2023-11-18T17:16:29;10.40;77.50
49385;DHT22;36795;45.028;38.968;2023-11-18T17:19:16;10.40;77.40
49385;DHT22;36795;45.028;38.968;2023-11-18T17:22:02;10.40;77.40
49385;DHT22;36795;45.028;38.968;2023-11-18T17:24:49;10.40;77.40
49385;DHT22;36795;45.028;38.968;2023-11-18T17:27:36;10.40;78.00
49385;DHT22;36795;45.028;38.968;2023-11-18T17:30:22;10.40;77.40
49385;DHT22;36795;45.028;38.968;2023-11-18T17:33:09;10.40;77.50
49385;DHT22;36795;45.028;38.968;2023-11-18T17:35:57;10.40;77.40
49385;DHT22;36795;45.028;38.968;2023-11-18T17:38:49;10.40;77.40